Keeneyville, Illinois
Current Conditions -  °F | °C
As of 11:52 PM on Wednesday 28 Jan 2015 (Local Time) from KDPA Reporting Station
Overcast Overcast  
Wind Chill: 25°   Ceiling: 8500
Heat Index: 34°   Visibility: 10mi
Dew Point: 26°   Wind: 14mph
Humidity: 73%   Direction: 170°S
Pressure: 29.78"   Gusts: 25mph
Location:  41.9791°N, 88.0934°W
Report Text: KDPA 290552Z 17012G22KT 10SM OVC085 01/M03 A2978 RMK AO2 RAE0459B21E32UPB30E31 SLP093 P0000 60001 T00111033 10011 20000 400111083 58038
Loading
Personal Weather Stations






























Interactive Weather Map New forecast layout! Learn more

10-Day Weather Forecast

Advertisements
Track Severe Weather on mobile